Hauptseite
METAR-TAF:

METAR-TAF

Flughäfen :

Militärflugplatz Cognac-Châteaubernard

Cognac, Frankreich

Breite: 45-40N, Länge: 000-19W, Höhe: 30 m

Beobachtung

Neuester Wetterbericht von vor 44 Minuten, um 03:30 UTC
Wind 8 kt aus Nord
Temperatur 4°C
Luftfeuchtigkeit 87%
Luftdruck 1021 hPa
Sichtweite 10 km oder mehr
Leicht bewölkt in der Höhe von 1600 ft
Geschlossene Wolkendecke in der Höhe von 2300 ft

METAR: LFBG 210330Z AUTO 36008KT 9999 FEW016 OVC023 04/02 Q1021

Zeit: 05:14 (04:14 UTC)


TAF: fehlend

Wetterbeobachtungen und Prognosen von mehr als 4000 Flughäfen (METAR und TAF Bericht).

Die verfügbaren Stationen werden durch gelbe und rote Markierungen auf der Karte dargestellt.

Führen Sie die Maus auf sie, um den Namen der Station zu sehen.

Darauf klicken, um die Beobachtung von Wetterbeobachtungen und Prognosen zu sehen.

Um die Karte zu ändern : klicken Sie auf den grünen Tasten mit einem schwarzen Kreuz Zum Vergrößern, auf den grünen Button mit einem Gedankenstrich zu verkleinern, oder auf die grünen Pfeile für benachbarte Karten.


METAR-TAF: